Time;durP1;ratioP1;P1;durP2;ratioP2;P2;SDS_P1;SDS_P2;PMS_P1;PMS_P2;Temp;Humidity;BMP_temperature;BMP_pressure;BME280_temperature;BME280_humidity;BME280_pressure;Samples;Min_cycle;Max_cycle;Signal;HPM_P1;HPM_P2
2022/09/12 00:00:06;;;;;;;6.10;2.33;;;;;;;25.24;49.09;100127.22;1770078;80;21696;-78
2022/09/12 00:02:33;;;;;;;2.62;2.08;;;;;;;25.24;49.11;100131.98;1805058;79;21243;-78
2022/09/12 00:04:59;;;;;;;3.40;2.40;;;;;;;25.23;49.08;100140.91;1805869;79;21404;-78
2022/09/12 00:07:25;;;;;;;3.75;2.27;;;;;;;25.23;49.09;100142.30;1805611;79;21029;-77
2022/09/12 00:09:51;;;;;;;4.45;2.20;;;;;;;25.23;49.09;100146.48;1805987;79;21030;-77
2022/09/12 00:12:17;;;;;;;3.02;2.05;;;;;;;25.24;49.09;100150.89;1806082;79;21046;-78
2022/09/12 00:14:43;;;;;;;2.95;2.08;;;;;;;25.24;49.08;100153.67;1805603;79;21107;-77
2022/09/12 00:17:09;;;;;;;2.77;2.05;;;;;;;25.23;49.09;100149.27;1812174;79;21057;-78
2022/09/12 00:19:36;;;;;;;2.98;2.35;;;;;;;25.24;49.09;100150.08;1812082;79;21372;-78
2022/09/12 00:22:02;;;;;;;4.22;2.20;;;;;;;25.23;49.10;100149.27;1805859;79;21551;-78
2022/09/12 00:24:28;;;;;;;2.42;1.85;;;;;;;25.24;49.08;100151.47;1805830;79;21054;-78
2022/09/12 00:26:55;;;;;;;3.08;2.08;;;;;;;25.23;49.09;100156.23;1805657;79;21452;-78
2022/09/12 00:29:21;;;;;;;3.10;2.17;;;;;;;25.23;49.09;100149.84;1805525;79;21014;-78
2022/09/12 00:31:47;;;;;;;2.90;2.10;;;;;;;25.23;49.09;100147.06;1806001;79;21007;-78
2022/09/12 00:34:14;;;;;;;3.30;2.40;;;;;;;25.22;49.09;100143.47;1805528;79;21038;-78
2022/09/12 00:36:40;;;;;;;4.92;2.15;;;;;;;25.23;49.10;100137.31;1805381;79;21068;-77
2022/09/12 00:39:07;;;;;;;3.80;2.42;;;;;;;25.22;49.09;100136.51;1782609;79;21121;-78
2022/09/12 00:41:36;;;;;;;4.20;1.90;;;;;;;25.22;49.10;100135.12;1778789;80;21103;-78
2022/09/12 00:44:26;;;;;;;3.35;2.00;;;;;;;25.23;49.12;100135.34;1778572;80;21067;-78
2022/09/12 00:47:00;;;;;;;2.75;2.02;;;;;;;25.22;49.11;100130.94;1778775;79;21515;-78
2022/09/12 00:49:36;;;;;;;2.47;2.00;;;;;;;25.21;49.11;100126.54;1778866;80;21052;-77
2022/09/12 00:52:07;;;;;;;3.12;2.02;;;;;;;25.21;49.11;100127.93;1778806;80;21008;-78
2022/09/12 00:54:41;;;;;;;3.00;2.10;;;;;;;25.21;49.11;100126.54;1778591;80;21001;-77
2022/09/12 00:57:08;;;;;;;3.02;2.10;;;;;;;25.21;49.10;100124.34;1779012;80;21557;-78
2022/09/12 00:59:43;;;;;;;3.87;2.20;;;;;;;25.20;49.10;100126.34;1779087;79;21024;-78
2022/09/12 01:02:09;;;;;;;3.33;2.20;;;;;;;25.20;49.12;100120.77;1778998;80;20999;-78
2022/09/12 01:04:35;;;;;;;2.87;1.90;;;;;;;25.20;49.12;100117.98;1725361;80;21008;-78
2022/09/12 01:07:02;;;;;;;2.42;2.00;;;;;;;25.20;49.13;100111.03;1779042;80;21505;-78
2022/09/12 01:09:28;;;;;;;2.58;1.92;;;;;;;25.21;49.13;100108.44;1724920;80;21527;-78
2022/09/12 01:11:54;;;;;;;2.27;2.02;;;;;;;25.21;49.14;100111.23;1779120;79;20968;-78
2022/09/12 01:14:27;;;;;;;2.62;1.90;;;;;;;25.21;49.11;100116.80;1779317;80;21055;-77
2022/09/12 01:16:53;;;;;;;3.17;2.10;;;;;;;25.20;49.13;100115.78;1778753;80;22054;-78
2022/09/12 01:19:54;;;;;;;2.35;2.00;;;;;;;25.21;49.13;100122.36;1779337;80;21135;-78
2022/09/12 01:22:58;;;;;;;3.60;2.20;;;;;;;25.21;49.12;100121.55;1764635;80;21099;-78
2022/09/12 01:25:32;;;;;;;2.90;2.08;;;;;;;25.18;49.09;100123.09;1779114;79;20961;-77
2022/09/12 01:28:25;;;;;;;2.47;1.98;;;;;;;25.19;49.10;100133.66;1769311;79;21043;-78
2022/09/12 01:31:18;;;;;;;4.15;2.00;;;;;;;25.18;49.11;100126.47;1752974;81;21242;-77
2022/09/12 01:34:15;;;;;;;2.75;2.00;;;;;;;25.17;49.13;100128.44;1752598;81;21028;-78
2022/09/12 01:37:20;;;;;;;2.50;1.70;;;;;;;25.18;49.12;100122.29;1752534;81;21043;-77
2022/09/12 01:39:59;;;;;;;2.75;1.80;;;;;;;25.16;49.10;100124.65;1752203;80;21032;-78
2022/09/12 01:42:33;;;;;;;2.62;2.05;;;;;;;25.16;49.12;100119.89;1752902;81;21055;-77
2022/09/12 01:45:17;;;;;;;2.90;1.77;;;;;;;25.15;49.11;100118.85;1752600;81;21469;-78
2022/09/12 01:47:48;;;;;;;2.55;1.80;;;;;;;25.15;49.14;100123.84;1752599;81;21043;-78
2022/09/12 01:50:26;;;;;;;2.47;2.08;;;;;;;25.14;49.16;100129.18;1752432;80;21054;-78
2022/09/12 01:52:57;;;;;;;3.75;2.00;;;;;;;25.15;49.15;100122.45;1722752;81;21094;-78
2022/09/12 01:55:47;;;;;;;2.83;2.00;;;;;;;25.15;49.16;100118.85;1722889;81;21058;-78
2022/09/12 01:58:24;;;;;;;2.98;1.90;;;;;;;25.15;49.16;100125.23;1722647;82;21953;-78
2022/09/12 02:01:01;;;;;;;2.72;2.00;;;;;;;25.15;49.14;100119.66;1721284;82;21099;-78
2022/09/12 02:03:32;;;;;;;2.90;2.08;;;;;;;25.15;49.14;100121.64;1752710;81;21084;-78
2022/09/12 02:06:04;;;;;;;3.87;2.02;;;;;;;25.15;49.16;100122.45;1752455;81;21077;-78
2022/09/12 02:08:47;;;;;;;3.00;1.87;;;;;;;25.14;49.17;100122.22;1752750;81;21050;-78
2022/09/12 02:11:13;;;;;;;2.20;1.67;;;;;;;25.14;49.16;100125.00;1752458;81;21302;-78
2022/09/12 02:14:03;;;;;;;2.50;2.02;;;;;;;25.15;49.15;100127.20;1752618;81;21500;-78
2022/09/12 02:16:42;;;;;;;3.03;1.87;;;;;;;25.14;49.15;100132.55;1752791;81;21042;-78
2022/09/12 02:19:13;;;;;;;3.85;1.87;;;;;;;25.15;49.14;100129.98;1752573;81;21120;-78
2022/09/12 02:21:43;;;;;;;2.80;1.70;;;;;;;25.14;49.11;100120.02;1752398;81;21120;-78
2022/09/12 02:24:09;;;;;;;2.25;1.70;;;;;;;25.13;49.10;100115.03;1752672;81;21169;-78
2022/09/12 02:26:44;;;;;;;2.67;1.70;;;;;;;25.14;49.09;100108.88;1752318;81;21057;-77
2022/09/12 02:29:10;;;;;;;3.25;1.98;;;;;;;25.13;49.10;100103.89;1735527;81;21102;-77
2022/09/12 02:31:46;;;;;;;3.85;2.05;;;;;;;25.14;49.11;100105.52;1762610;81;21020;-77
2022/09/12 02:34:32;;;;;;;3.10;1.98;;;;;;;25.14;49.08;100108.88;1762427;81;21074;-77
2022/09/12 02:37:20;;;;;;;2.12;1.62;;;;;;;25.15;49.06;100109.92;1762661;81;21097;-77
2022/09/12 02:39:46;;;;;;;2.87;1.87;;;;;;;25.13;49.05;100113.64;1762711;81;22203;-78
2022/09/12 02:42:12;;;;;;;2.62;1.70;;;;;;;25.13;49.05;100111.44;1763122;79;21462;-78
2022/09/12 02:44:39;;;;;;;2.50;1.90;;;;;;;25.14;49.04;100110.27;1763086;81;21024;-78
2022/09/12 02:47:31;;;;;;;3.20;1.60;;;;;;;25.13;49.05;100113.64;1762717;81;21058;-78
2022/09/12 02:49:57;;;;;;;2.55;1.52;;;;;;;25.14;49.03;100124.19;1763003;81;21111;-78
2022/09/12 02:52:23;;;;;;;2.95;1.77;;;;;;;25.13;49.02;100130.34;1762633;81;21465;-78
2022/09/12 02:54:50;;;;;;;3.52;1.70;;;;;;;25.13;49.01;100126.75;1762997;81;21011;-77
2022/09/12 02:57:18;;;;;;;2.42;1.70;;;;;;;25.13;48.98;100135.09;1762880;81;21016;-77
2022/09/12 02:59:44;;;;;;;1.57;1.37;;;;;;;25.13;48.98;100137.30;1762544;81;21478;-77
2022/09/12 03:02:34;;;;;;;1.90;1.52;;;;;;;25.13;48.99;100137.88;1762909;81;21789;-77
2022/09/12 03:05:25;;;;;;;2.75;1.82;;;;;;;25.13;48.98;100141.47;1794360;79;21047;-77
2022/09/12 03:08:26;;;;;;;2.22;1.75;;;;;;;25.14;48.94;100135.33;1800422;79;20924;-78
2022/09/12 03:11:15;;;;;;;2.33;1.70;;;;;;;25.12;48.95;100140.47;1800113;79;20972;-78
2022/09/12 03:14:01;;;;;;;3.25;1.40;;;;;;;25.11;48.92;100142.44;1799468;79;21019;-78
2022/09/12 03:16:36;;;;;;;2.50;1.40;;;;;;;25.11;48.91;100139.66;1800009;79;21291;-78
2022/09/12 03:19:26;;;;;;;2.75;1.55;;;;;;;25.11;48.89;100149.40;1799897;79;21481;-78
2022/09/12 03:22:22;;;;;;;1.70;1.60;;;;;;;25.10;48.90;100150.56;1800283;79;20972;-78
2022/09/12 03:25:03;;;;;;;2.67;1.67;;;;;;;25.11;48.90;100159.73;1800244;79;21278;-78
2022/09/12 03:27:37;;;;;;;2.27;1.60;;;;;;;25.09;48.87;100151.73;1799911;79;21008;-78
2022/09/12 03:30:05;;;;;;;2.37;1.82;;;;;;;25.09;48.85;100150.34;1795726;79;21458;-78
2022/09/12 03:32:51;;;;;;;2.87;1.82;;;;;;;25.09;48.84;100150.92;1795750;78;21050;-78
2022/09/12 03:35:20;;;;;;;1.90;1.45;;;;;;;25.09;48.84;100148.94;1811870;78;21044;-78
2022/09/12 03:37:47;;;;;;;2.58;1.70;;;;;;;25.09;48.86;100150.92;1795708;78;21121;-78
2022/09/12 03:40:14;;;;;;;2.58;1.30;;;;;;;25.10;48.84;100151.14;1795830;78;21065;-78
2022/09/12 03:42:41;;;;;;;2.22;1.65;;;;;;;25.09;48.81;100142.56;1782381;79;21854;-78
2022/09/12 03:45:08;;;;;;;3.77;1.77;;;;;;;25.09;48.81;100144.77;1782340;79;21063;-78
2022/09/12 03:47:34;;;;;;;2.90;1.60;;;;;;;25.09;48.80;100150.34;1782253;79;21030;-78
2022/09/12 03:50:01;;;;;;;2.02;1.50;;;;;;;25.10;48.80;100148.36;1781990;80;21059;-78
2022/09/12 03:52:27;;;;;;;2.02;1.50;;;;;;;25.09;48.77;100147.55;1782432;79;21023;-79
2022/09/12 03:54:53;;;;;;;2.92;1.42;;;;;;;25.09;48.71;100151.73;1782370;80;21082;-78
2022/09/12 03:57:20;;;;;;;3.00;1.65;;;;;;;25.07;48.63;100149.09;1782030;80;21062;-79
2022/09/12 03:59:49;;;;;;;2.25;1.30;;;;;;;25.07;48.63;100154.08;1782528;79;21101;-78
2022/09/12 04:02:22;;;;;;;1.87;1.47;;;;;;;25.07;48.55;100149.09;1782047;79;21023;-78
2022/09/12 04:04:48;;;;;;;2.58;1.70;;;;;;;25.05;48.51;100152.81;1781715;79;20991;-78
2022/09/12 04:07:15;;;;;;;2.60;1.50;;;;;;;25.04;48.49;100146.44;1782024;80;21223;-78
2022/09/12 04:09:42;;;;;;;2.62;1.55;;;;;;;25.04;48.44;100153.39;1782190;79;21015;-79
2022/09/12 04:12:08;;;;;;;2.02;1.52;;;;;;;25.04;48.32;100162.36;1782169;80;21027;-79
2022/09/12 04:14:34;;;;;;;3.08;1.32;;;;;;;25.03;48.23;100164.33;1782444;80;20964;-79
2022/09/12 04:17:00;;;;;;;3.50;1.75;;;;;;;24.99;48.01;100161.44;1781893;79;21602;-80
2022/09/12 04:19:27;;;;;;;3.33;1.70;;;;;;;24.94;47.77;100162.33;1780273;80;21186;-79
2022/09/12 04:21:53;;;;;;;8.93;1.75;;;;;;;24.87;47.60;100159.36;1774124;79;21544;-80
2022/09/12 04:24:20;;;;;;;4.37;1.80;;;;;;;24.81;47.44;100159.41;1773861;80;21011;-79
2022/09/12 04:26:46;;;;;;;5.05;1.67;;;;;;;24.76;47.29;100163.27;1776409;79;21032;-79
2022/09/12 04:29:13;;;;;;;7.05;2.10;;;;;;;24.70;47.18;100167.48;1761313;79;21470;-80
2022/09/12 04:31:46;;;;;;;7.78;2.12;;;;;;;24.63;47.07;100157.58;1761338;80;21081;-79
2022/09/12 04:34:12;;;;;;;6.55;2.25;;;;;;;24.58;46.97;100164.80;1743092;81;21046;-82
2022/09/12 04:36:38;;;;;;;4.95;2.30;;;;;;;24.53;46.89;100164.48;1737724;80;21026;-83
2022/09/12 04:39:05;;;;;;;5.28;2.00;;;;;;;24.49;46.82;100166.37;1719741;81;21061;-83
2022/09/12 04:41:34;;;;;;;5.00;2.02;;;;;;;24.43;46.71;100165.63;1720204;82;21560;-80
2022/09/12 04:44:04;;;;;;;5.77;2.13;;;;;;;24.36;46.74;100166.81;1700188;83;21734;-80
2022/09/12 04:46:33;;;;;;;10.55;2.60;;;;;;;24.31;46.73;100176.26;1719336;82;21783;-84
2022/09/12 04:48:59;;;;;;;7.53;2.80;;;;;;;24.26;46.69;100175.13;1688643;82;21088;-84
2022/09/12 04:51:30;;;;;;;10.18;2.60;;;;;;;24.21;46.78;100172.61;1729607;80;21118;-84
2022/09/12 04:53:59;;;;;;;6.62;2.62;;;;;;;24.19;46.77;100180.48;1717466;81;21466;-86
2022/09/12 04:56:26;;;;;;;9.40;2.58;;;;;;;24.16;46.84;100180.39;1729978;80;21141;-87
2022/09/12 04:58:52;;;;;;;7.70;2.35;;;;;;;24.16;46.83;100183.98;1723043;81;21105;-81
2022/09/12 05:01:21;;;;;;;12.33;3.05;;;;;;;24.11;46.91;100189.77;1725982;81;21089;-81
2022/09/12 05:03:47;;;;;;;12.10;2.87;;;;;;;24.08;46.96;100195.47;1723108;81;21129;-82
2022/09/12 05:06:23;;;;;;;8.45;2.83;;;;;;;24.08;47.07;100191.88;1735272;80;21572;-81
2022/09/12 05:08:50;;;;;;;13.05;2.92;;;;;;;24.09;47.08;100192.92;1723495;81;21117;-81
2022/09/12 05:11:20;;;;;;;10.65;3.00;;;;;;;24.10;47.14;100194.51;1730958;81;21543;-81
2022/09/12 05:13:46;;;;;;;11.35;3.20;;;;;;;24.13;47.10;100201.34;1727581;82;21062;-81
2022/09/12 05:16:14;;;;;;;5.08;2.60;;;;;;;24.14;47.02;100200.19;1709260;82;21089;-81
2022/09/12 05:18:40;;;;;;;7.37;3.30;;;;;;;24.15;46.97;100196.25;1723319;81;21482;-81
2022/09/12 05:21:09;;;;;;;11.48;3.47;;;;;;;24.16;46.91;100196.48;1733483;81;22378;-81
2022/09/12 05:23:36;;;;;;;10.05;3.60;;;;;;;24.16;46.88;100196.48;1734171;81;21846;-81
2022/09/12 05:26:03;;;;;;;8.33;2.72;;;;;;;24.14;46.86;100191.24;1726724;81;21568;-81
2022/09/12 05:28:34;;;;;;;5.83;2.72;;;;;;;24.16;46.85;100188.73;1728586;80;21093;-81
2022/09/12 05:31:04;;;;;;;6.42;2.60;;;;;;;24.16;46.87;100181.20;1720186;81;21038;-78
2022/09/12 05:33:32;;;;;;;6.10;3.33;;;;;;;24.17;46.82;100186.99;1722809;81;21411;-79
2022/09/12 05:35:59;;;;;;;7.30;2.72;;;;;;;24.20;46.81;100182.68;1714499;82;21062;-78
2022/09/12 05:38:27;;;;;;;5.60;2.65;;;;;;;24.22;46.84;100190.91;1686636;82;21525;-79
2022/09/12 05:41:05;;;;;;;7.30;2.45;;;;;;;24.26;46.85;100194.59;1700403;81;21127;-79
2022/09/12 05:43:36;;;;;;;6.42;2.60;;;;;;;24.25;46.90;100190.77;1716822;81;21056;-78
2022/09/12 05:46:09;;;;;;;4.70;2.12;;;;;;;24.25;46.96;100192.16;1707385;81;21075;-80
2022/09/12 05:48:36;;;;;;;5.67;2.95;;;;;;;24.25;46.86;100194.94;1705650;81;21758;-76
2022/09/12 05:51:09;;;;;;;8.25;2.70;;;;;;;24.18;46.87;100192.78;1698429;81;21142;-84
2022/09/12 05:53:36;;;;;;;10.40;2.50;;;;;;;24.17;47.14;100198.11;1706942;81;21102;-80
2022/09/12 05:56:06;;;;;;;8.13;2.35;;;;;;;24.17;47.23;100190.34;1695524;82;21125;-79
2022/09/12 05:58:34;;;;;;;;;;;;;;;24.17;47.16;100195.33;1708586;81;21828;-77
2022/09/12 06:01:06;;;;;;;15.28;2.92;;;;;;;24.15;47.31;100197.64;1697766;83;20213;-78
2022/09/12 06:03:43;;;;;;;5.22;2.37;;;;;;;24.15;47.33;100201.81;1682175;80;21297;-76
2022/09/12 06:06:12;;;;;;;11.20;3.47;;;;;;;24.14;47.16;100201.58;1702447;81;21070;-77
2022/09/12 06:08:43;;;;;;;9.08;2.77;;;;;;;24.08;47.13;100205.19;1710530;81;21106;-75
2022/09/12 06:11:12;;;;;;;10.50;3.20;;;;;;;24.04;47.06;100202.09;1659336;83;127158;-86
2022/09/12 06:13:39;;;;;;;9.18;2.62;;;;;;;24.04;47.17;100206.25;1652961;84;21050;-86
2022/09/12 06:16:12;;;;;;;6.42;2.50;;;;;;;24.02;47.21;100202.43;1659482;84;21135;-90
2022/09/12 06:18:39;;;;;;;7.80;2.20;;;;;;;24.03;47.17;100207.41;1663915;84;21488;-87
2022/09/12 06:21:10;;;;;;;10.05;2.67;;;;;;;24.04;47.02;100207.64;1670337;83;21082;-88
2022/09/12 06:23:44;;;;;;;4.70;2.00;;;;;;;24.03;46.89;100210.19;1659804;84;21815;-86
2022/09/12 06:26:10;;;;;;;4.65;1.77;;;;;;;24.02;46.73;100212.73;1662749;84;21122;-89
2022/09/12 06:28:40;;;;;;;5.12;1.82;;;;;;;24.02;46.60;100208.56;1664071;84;21087;-86
2022/09/12 06:31:10;;;;;;;7.00;2.27;;;;;;;24.03;46.51;100210.19;1672668;84;21610;-84
2022/09/12 06:33:38;;;;;;;7.20;1.70;;;;;;;24.04;46.39;100218.18;1676754;84;21001;-87
2022/09/12 06:36:10;;;;;;;7.03;2.10;;;;;;;24.03;46.30;100209.61;1657238;84;21167;-85
2022/09/12 06:38:37;;;;;;;7.67;1.82;;;;;;;24.04;46.21;100210.42;1667014;83;21620;-87
2022/09/12 06:41:09;;;;;;;5.00;1.67;;;;;;;24.03;46.19;100217.95;1640066;84;21111;-91
2022/09/12 06:43:36;;;;;;;8.08;2.40;;;;;;;24.04;46.06;100207.06;1671520;83;20972;-88
2022/09/12 06:46:02;;;;;;;14.10;3.00;;;;;;;24.03;46.04;100212.97;1668079;84;21178;-87
2022/09/12 06:48:36;;;;;;;9.10;3.10;;;;;;;24.04;46.16;100212.63;1666166;83;21142;-85
2022/09/12 06:51:06;;;;;;;11.57;2.92;;;;;;;24.09;46.36;100210.17;1666959;84;21126;-89
2022/09/12 06:53:33;;;;;;;14.58;2.52;;;;;;;24.13;46.60;100209.69;1671072;84;21097;-86
2022/09/12 06:56:10;;;;;;;18.52;2.55;;;;;;;24.19;46.68;100211.05;1645241;84;21450;-85
2022/09/12 06:58:37;;;;;;;10.40;2.55;;;;;;;24.24;46.83;100209.98;1669378;84;21126;-87
2022/09/12 07:01:11;;;;;;;8.53;2.22;;;;;;;24.28;46.90;100212.28;1670503;84;22361;-86
2022/09/12 07:03:38;;;;;;;13.30;2.22;;;;;;;24.32;46.88;100217.34;1670190;83;21102;-87
2022/09/12 07:06:12;;;;;;;12.78;2.85;;;;;;;24.32;47.04;100211.20;1665457;84;21043;-87
2022/09/12 07:08:40;;;;;;;14.30;2.35;;;;;;;24.36;47.00;100211.30;1661575;81;21136;-90
2022/09/12 07:11:16;;;;;;;12.03;2.00;;;;;;;24.38;46.90;100207.59;1663785;83;21105;-87
2022/09/12 07:13:43;;;;;;;4.42;1.72;;;;;;;24.39;46.63;100213.39;1664007;83;21510;-87
2022/09/12 07:16:10;;;;;;;9.95;2.20;;;;;;;24.38;46.28;100211.19;1668399;84;21074;-87
2022/09/12 07:18:37;;;;;;;8.50;2.87;;;;;;;24.38;46.17;100218.13;1649703;84;21063;-87
2022/09/12 07:21:06;;;;;;;7.90;2.50;;;;;;;24.39;46.06;100211.42;1645307;85;21364;-88
2022/09/12 07:23:33;;;;;;;9.43;2.30;;;;;;;24.41;45.94;100216.60;1667360;84;21223;-87
2022/09/12 07:25:59;;;;;;;9.03;3.20;;;;;;;24.42;45.91;100209.88;1636136;85;21778;-87
2022/09/12 07:28:29;;;;;;;5.35;2.10;;;;;;;24.45;45.82;100211.36;1670254;83;21088;-88
2022/09/12 07:30:55;;;;;;;4.58;2.05;;;;;;;24.45;45.71;100210.55;1663887;85;21064;-87
2022/09/12 07:33:24;;;;;;;9.28;1.75;;;;;;;24.45;45.61;100209.97;1650329;84;21137;-88
2022/09/12 07:35:53;;;;;;;3.58;1.60;;;;;;;24.46;45.46;100213.56;1660980;84;21132;-88
2022/09/12 07:38:20;;;;;;;2.45;1.35;;;;;;;24.45;45.29;100211.36;1653269;85;21149;-84
2022/09/12 07:40:47;;;;;;;5.37;2.27;;;;;;;24.47;45.18;100216.58;1650824;85;21177;-83
2022/09/12 07:43:13;;;;;;;3.80;1.57;;;;;;;24.47;45.18;100207.66;1658039;85;21081;-88
2022/09/12 07:45:43;;;;;;;5.83;1.72;;;;;;;24.50;45.05;100201.95;1657370;85;21133;-85
2022/09/12 07:48:09;;;;;;;5.83;1.60;;;;;;;24.49;45.00;100191.41;1644492;85;37892;-86
2022/09/12 07:50:36;;;;;;;10.00;1.57;;;;;;;24.51;45.42;100200.78;1666216;83;21648;-86
2022/09/12 07:53:06;;;;;;;10.82;1.30;;;;;;;24.53;45.40;100195.08;1670479;83;21204;-88
2022/09/12 07:55:35;;;;;;;7.95;1.40;;;;;;;24.52;45.44;100197.66;1650362;84;21069;-82
2022/09/12 07:58:07;;;;;;;8.93;1.70;;;;;;;24.55;45.47;100196.13;1679503;84;21092;-89
2022/09/12 08:00:36;;;;;;;15.85;1.80;;;;;;;24.55;45.44;100197.51;1664353;83;21157;-87
2022/09/12 08:03:02;;;;;;;8.78;1.30;;;;;;;24.56;45.50;100201.34;1672355;84;21175;-87
2022/09/12 08:05:29;;;;;;;12.82;2.12;;;;;;;24.59;45.53;100198.41;1664000;83;21124;-88
2022/09/12 08:07:56;;;;;;;14.90;2.72;;;;;;;24.61;45.52;100208.61;1652795;84;21048;-92
2022/09/12 08:10:24;;;;;;;6.37;1.90;;;;;;;24.63;45.53;100199.87;1660468;84;21061;-90
2022/09/12 08:12:51;;;;;;;8.68;2.00;;;;;;;24.65;45.52;100190.03;1659682;85;22291;-91
2022/09/12 08:15:20;;;;;;;8.35;1.60;;;;;;;24.67;45.65;100194.62;1635726;85;21072;-90
2022/09/12 08:17:47;;;;;;;10.60;2.25;;;;;;;24.70;45.71;100189.73;1622131;84;21046;-88
2022/09/12 08:20:13;;;;;;;11.25;3.87;;;;;;;24.71;45.66;100183.01;1664020;84;21058;-91
2022/09/12 08:22:39;;;;;;;6.62;2.65;;;;;;;24.73;45.60;100189.03;1639353;85;21263;-88
2022/09/12 08:25:07;;;;;;;5.28;1.60;;;;;;;24.74;45.45;100182.28;1651922;84;21158;-88
2022/09/12 08:27:41;;;;;;;4.35;1.60;;;;;;;24.74;45.15;100180.89;1660512;84;21113;-89
2022/09/12 08:30:12;;;;;;;4.42;0.95;;;;;;;24.74;44.92;100180.11;1662677;83;21086;-90
2022/09/12 08:32:43;;;;;;;3.05;1.07;;;;;;;24.72;44.64;100181.84;1658516;83;21000;-87
2022/09/12 08:35:15;;;;;;;5.58;1.27;;;;;;;24.70;44.33;100180.00;1658422;83;21124;-88
2022/09/12 08:37:42;;;;;;;2.67;1.20;;;;;;;24.68;44.09;100171.80;1667870;83;21111;-85
2022/09/12 08:40:17;;;;;;;5.15;1.20;;;;;;;24.67;43.91;100170.17;1667131;82;21126;-90
2022/09/12 08:43:07;;;;;;;4.80;1.20;;;;;;;24.67;43.98;100163.22;1653922;84;21130;-89
2022/09/12 08:45:45;;;;;;;8.07;2.70;;;;;;;24.67;43.72;100159.86;1656806;85;21107;-91
2022/09/12 08:48:11;;;;;;;17.32;2.60;;;;;;;24.66;43.87;100161.60;1674555;82;21083;-88
2022/09/12 08:50:43;;;;;;;18.45;3.62;;;;;;;24.71;44.16;100164.12;1676197;84;21116;-87
2022/09/12 08:53:23;;;;;;;11.95;2.10;;;;;;;24.76;44.75;100160.48;1673899;82;21595;-89
2022/09/12 08:55:57;;;;;;;8.35;1.35;;;;;;;24.82;45.19;100161.02;1677885;84;21080;-90
2022/09/12 08:58:28;;;;;;;15.80;1.90;;;;;;;24.86;45.45;100157.19;1667199;83;21137;-87
2022/09/12 09:01:43;;;;;;;17.27;2.20;;;;;;;24.89;45.43;100157.03;1668503;82;21432;-88
2022/09/12 09:04:40;;;;;;;14.70;1.90;;;;;;;24.89;45.54;100157.03;1674132;82;21087;-88
2022/09/12 09:07:36;;;;;;;11.30;1.85;;;;;;;24.91;45.69;100147.14;1666356;84;22736;-87
2022/09/12 09:10:40;;;;;;;14.35;1.57;;;;;;;24.93;45.62;100145.41;1650541;82;21057;-88
2022/09/12 09:16:33;;;;;;;5.62;2.02;;;;;;;24.92;45.16;100145.98;1677644;82;21164;-89
2022/09/12 09:19:17;;;;;;;5.92;1.80;;;;;;;24.90;44.84;100148.92;1653940;84;21965;-89
2022/09/12 09:22:09;;;;;;;3.65;1.52;;;;;;;24.90;44.70;100153.09;1675644;82;21165;-91
2022/09/12 09:24:44;;;;;;;3.65;1.17;;;;;;;24.89;44.33;100149.50;1668222;84;20985;-89
2022/09/12 09:27:32;;;;;;;2.87;1.00;;;;;;;24.88;43.96;100148.45;1675841;82;21049;-84
2022/09/12 09:29:58;;;;;;;2.95;1.00;;;;;;;24.85;43.61;100138.03;1672111;83;21148;-85
2022/09/12 09:32:37;;;;;;;1.80;1.00;;;;;;;24.82;43.50;100133.20;1676443;84;21064;-85
2022/09/12 09:35:20;;;;;;;5.83;1.60;;;;;;;24.83;43.29;100137.57;1677078;83;21711;-84
2022/09/12 09:37:57;;;;;;;6.33;1.07;;;;;;;24.82;43.18;100136.80;1675187;83;21121;-86
2022/09/12 09:40:49;;;;;;;5.45;1.00;;;;;;;24.82;43.11;100131.23;1675183;84;21096;-87
2022/09/12 09:43:22;;;;;;;4.55;1.07;;;;;;;24.84;43.20;100130.84;1674446;84;21733;-85
2022/09/12 09:45:50;;;;;;;1.90;0.82;;;;;;;24.84;43.11;100128.87;1678615;83;21049;-84
2022/09/12 09:48:39;;;;;;;7.20;0.98;;;;;;;24.84;42.81;100123.31;1675397;84;22274;-87
2022/09/12 09:51:06;;;;;;;3.02;0.90;;;;;;;24.84;42.59;100126.09;1677171;84;21117;-86
2022/09/12 09:54:12;;;;;;;6.30;1.00;;;;;;;24.83;42.41;100120.88;1674993;82;21114;-85
2022/09/12 09:56:41;;;;;;;9.30;1.30;;;;;;;24.83;42.72;100112.53;1675471;83;21067;-87
2022/09/12 09:59:15;;;;;;;10.70;1.80;;;;;;;24.86;43.39;100119.63;1672709;84;21234;-89
2022/09/12 10:02:02;;;;;;;13.55;1.87;;;;;;;24.90;43.99;100117.73;1669492;83;21528;-89
2022/09/12 10:04:41;;;;;;;13.68;2.00;;;;;;;24.94;44.63;100116.41;1673365;84;21219;-87
2022/09/12 10:07:18;;;;;;;9.25;1.35;;;;;;;24.98;44.44;100115.32;1673604;84;21336;-86
2022/09/12 10:10:06;;;;;;;10.28;1.50;;;;;;;24.99;44.19;100113.35;1665506;84;21161;-89
2022/09/12 10:12:33;;;;;;;6.30;1.35;;;;;;;24.99;43.90;100111.34;1655608;83;21113;-88
2022/09/12 10:15:17;;;;;;;5.10;1.05;;;;;;;24.99;43.72;100109.17;1665123;84;21883;-87
2022/09/12 10:17:45;;;;;;;2.27;0.90;;;;;;;24.98;43.47;100102.80;1664223;85;21133;-87
2022/09/12 10:20:33;;;;;;;6.87;1.77;;;;;;;24.98;43.29;100106.16;1661069;84;21137;-86
2022/09/12 10:23:01;;;;;;;6.87;1.20;;;;;;;24.97;43.13;100099.79;1654012;85;21107;-87
2022/09/12 10:25:31;;;;;;;7.20;1.42;;;;;;;24.99;42.93;100105.00;1657119;84;21115;-87
2022/09/12 10:27:59;;;;;;;4.30;1.13;;;;;;;24.98;42.61;100101.41;1655943;85;21220;-88
2022/09/12 10:30:27;;;;;;;4.92;1.37;;;;;;;24.98;42.48;100098.63;1656843;84;21146;-87
2022/09/12 10:33:06;;;;;;;7.28;1.35;;;;;;;24.98;42.35;100097.81;1661491;83;21122;-88
2022/09/12 10:35:47;;;;;;;3.12;1.92;;;;;;;24.98;42.25;100101.98;1663746;83;21667;-85
2022/09/12 10:38:30;;;;;;;5.70;2.33;;;;;;;24.96;42.07;100095.97;1652607;84;24006;-83
2022/09/12 10:41:05;;;;;;;2.72;1.57;;;;;;;24.96;42.00;100087.03;1657749;84;22192;-86
2022/09/12 10:43:39;;;;;;;3.05;1.25;;;;;;;24.95;41.81;100081.24;1657236;86;21542;-86
2022/09/12 10:46:28;;;;;;;6.05;1.60;;;;;;;24.95;41.64;100090.20;1656327;86;21613;-88
2022/09/12 10:49:23;;;;;;;7.17;2.35;;;;;;;24.95;41.71;100086.03;1658280;84;21098;-89
2022/09/12 10:51:50;;;;;;;5.83;2.22;;;;;;;24.97;42.12;100083.09;1659092;84;21342;-86
2022/09/12 10:54:27;;;;;;;6.92;1.72;;;;;;;24.98;42.21;100085.29;1666590;83;21114;-90
2022/09/12 10:57:08;;;;;;;12.63;1.90;;;;;;;25.02;42.88;100080.61;1660878;84;21413;-85
2022/09/12 11:00:16;;;;;;;8.78;1.57;;;;;;;25.05;43.54;100078.48;1659745;85;21681;-89
2022/09/12 11:03:17;;;;;;;22.95;4.08;;;;;;;25.09;43.69;100076.58;1645132;84;21116;-85
2022/09/12 11:05:59;;;;;;;22.73;4.17;;;;;;;25.10;43.81;100078.19;1656760;84;21719;-90
2022/09/12 11:09:06;;;;;;;11.90;2.70;;;;;;;25.14;43.87;100075.48;1654545;84;21667;-89
2022/09/12 11:12:07;;;;;;;10.58;2.02;;;;;;;25.15;43.71;100084.87;1609246;84;21193;-90
2022/09/12 11:15:17;;;;;;;7.85;1.55;;;;;;;25.14;43.43;100071.30;1601244;86;21206;-90
2022/09/12 11:17:58;;;;;;;4.37;1.00;;;;;;;25.14;43.30;100075.48;1605829;87;21363;-88
2022/09/12 11:21:10;;;;;;;5.12;1.10;;;;;;;25.12;42.85;100071.66;1629297;85;21719;-88
2022/09/12 11:23:45;;;;;;;8.93;1.30;;;;;;;25.11;42.44;100071.46;1666230;83;21190;-89
2022/09/12 11:26:46;;;;;;;4.42;1.02;;;;;;;25.10;42.31;100074.02;1658975;84;21107;-86
2022/09/12 11:29:30;;;;;;;5.92;1.25;;;;;;;25.11;42.13;100069.27;1653599;86;21961;-90
2022/09/12 11:32:27;;;;;;;7.05;1.57;;;;;;;25.10;42.23;100061.49;1655495;84;21076;-88
2022/09/12 11:35:09;;;;;;;6.65;1.42;;;;;;;25.10;42.24;100065.67;1659089;84;21122;-88
2022/09/12 11:38:11;;;;;;;8.05;1.10;;;;;;;25.11;42.15;100065.09;1656987;85;21156;-89
2022/09/12 11:41:14;;;;;;;3.47;1.02;;;;;;;25.11;42.02;100063.11;1620065;85;21127;-90
2022/09/12 11:43:48;;;;;;;4.28;1.05;;;;;;;25.10;41.93;100054.53;1656524;84;21109;-88
2022/09/12 11:46:29;;;;;;;3.52;1.00;;;;;;;25.11;41.75;100055.34;1660021;83;21086;-90
2022/09/12 11:52:25;;;;;;;8.23;1.20;;;;;;;25.10;41.25;100053.14;1664983;84;21152;-91
2022/09/12 11:55:21;;;;;;;8.55;1.55;;;;;;;25.11;41.44;100045.60;1634001;85;21026;-88
2022/09/12 11:58:04;;;;;;;10.55;1.42;;;;;;;25.11;42.17;100040.84;1653656;84;21585;-92
2022/09/12 12:03:34;;;;;;;14.40;1.57;;;;;;;25.20;42.57;100035.05;1560489;86;21138;-90
2022/09/12 12:06:11;;;;;;;13.40;1.77;;;;;;;25.21;42.64;100037.45;1657194;84;21219;-91